createdAt,value
2023-05-19T00:00:49.002Z,7.45
2023-05-19T00:06:32.827Z,7.35
2023-05-19T00:09:22.845Z,6.47
2023-05-19T00:12:15.880Z,6.28
2023-05-19T00:17:55.877Z,5.82
2023-05-19T00:20:45.909Z,5.93
2023-05-19T00:23:35.179Z,5.88
2023-05-19T00:26:24.719Z,6.13
2023-05-19T00:29:22.777Z,8.80
2023-05-19T00:32:12.129Z,8.95
2023-05-19T00:35:01.615Z,10.02
2023-05-19T00:37:50.992Z,9.15
2023-05-19T00:40:40.421Z,8.27
2023-05-19T00:43:30.362Z,7.70
2023-05-19T00:46:21.525Z,8.05
2023-05-19T00:49:11.044Z,7.50
2023-05-19T00:52:02.583Z,7.20
2023-05-19T00:54:52.760Z,6.90
2023-05-19T00:57:42.710Z,6.68
2023-05-19T01:00:33.198Z,6.97
2023-05-19T01:03:25.713Z,6.63
2023-05-19T01:06:15.308Z,6.63
2023-05-19T01:09:04.996Z,6.28
2023-05-19T01:11:54.682Z,6.38
2023-05-19T01:14:44.532Z,5.28
2023-05-19T01:17:43.595Z,4.90
2023-05-19T01:20:46.480Z,5.32
2023-05-19T01:23:47.873Z,5.63
2023-05-19T01:27:11.126Z,5.82
2023-05-19T01:30:30.193Z,5.55
2023-05-19T01:33:21.574Z,5.50
2023-05-19T01:36:13.622Z,6.53
2023-05-19T01:39:03.551Z,5.18
2023-05-19T01:41:53.637Z,5.50
2023-05-19T01:44:43.581Z,5.97
2023-05-19T01:47:34.978Z,6.82
2023-05-19T01:50:24.765Z,6.20
2023-05-19T01:53:14.535Z,5.40
2023-05-19T01:56:04.568Z,5.53
2023-05-19T01:59:01.626Z,5.68
2023-05-19T02:01:55.084Z,6.38
2023-05-19T02:04:52.620Z,6.10
2023-05-19T02:07:49.184Z,6.25
2023-05-19T02:10:43.644Z,7.15
2023-05-19T02:13:38.574Z,6.45
2023-05-19T02:16:30.468Z,6.45
2023-05-19T02:19:25.875Z,7.20
2023-05-19T02:22:18.891Z,6.97
2023-05-19T02:25:11.343Z,7.45
2023-05-19T02:28:01.680Z,7.03
2023-05-19T02:30:52.823Z,7.20
2023-05-19T02:33:43.104Z,7.13
2023-05-19T02:36:37.866Z,7.20
2023-05-19T02:39:29.512Z,7.40
2023-05-19T02:42:18.925Z,7.00
2023-05-19T02:45:09.666Z,7.47
2023-05-19T02:48:00.516Z,6.53
2023-05-19T02:50:49.820Z,7.07
2023-05-19T02:53:39.217Z,6.93
2023-05-19T02:56:30.075Z,7.50
2023-05-19T02:59:19.343Z,7.47
2023-05-19T03:02:08.821Z,7.53
2023-05-19T03:04:58.152Z,7.65
2023-05-19T03:07:47.754Z,7.95
2023-05-19T03:10:37.028Z,7.68
2023-05-19T03:13:27.738Z,7.38
2023-05-19T03:16:17.001Z,7.90
2023-05-19T03:19:06.306Z,7.78
2023-05-19T03:21:56.503Z,7.65
2023-05-19T03:24:46.039Z,7.40
2023-05-19T03:27:35.337Z,7.88
2023-05-19T03:30:26.237Z,7.53
2023-05-19T03:33:30.926Z,8.65
2023-05-19T03:36:22.174Z,7.72
2023-05-19T03:39:11.773Z,7.63
2023-05-19T03:42:01.213Z,8.02
2023-05-19T03:44:50.778Z,7.80
2023-05-19T03:47:42.260Z,8.90
2023-05-19T03:50:46.231Z,8.65
2023-05-19T03:53:45.728Z,8.10
2023-05-19T03:56:35.195Z,7.20
2023-05-19T03:59:24.844Z,8.35
2023-05-19T04:02:16.612Z,8.52
2023-05-19T04:05:08.687Z,9.05
2023-05-19T04:07:59.657Z,8.63
2023-05-19T04:10:49.093Z,8.80
2023-05-19T04:13:38.518Z,7.75
2023-05-19T04:16:28.005Z,7.95
2023-05-19T04:19:17.454Z,7.72
2023-05-19T04:22:08.582Z,7.63
2023-05-19T04:24:58.288Z,8.25
2023-05-19T04:27:48.368Z,9.48
2023-05-19T04:30:38.829Z,7.40
2023-05-19T04:33:29.389Z,7.75
2023-05-19T04:36:21.736Z,8.43
2023-05-19T04:39:15.764Z,7.97
2023-05-19T04:42:09.100Z,8.27
2023-05-19T04:44:59.000Z,7.95
2023-05-19T04:47:52.789Z,8.20
2023-05-19T04:50:42.521Z,7.63
2023-05-19T04:53:32.587Z,8.43
2023-05-19T04:56:23.755Z,8.07
2023-05-19T04:59:13.328Z,8.38
2023-05-19T05:02:02.988Z,9.80
2023-05-19T05:04:54.599Z,8.85
2023-05-19T05:07:45.232Z,8.75
2023-05-19T05:10:34.929Z,8.77
2023-05-19T05:13:27.487Z,8.50
2023-05-19T05:16:18.169Z,7.72
2023-05-19T05:19:15.508Z,8.32
2023-05-19T05:22:17.733Z,8.27
2023-05-19T05:25:09.508Z,8.48
2023-05-19T05:28:05.179Z,9.17
2023-05-19T05:30:58.057Z,8.70
2023-05-19T05:33:48.024Z,7.72
2023-05-19T05:36:41.859Z,8.55
2023-05-19T05:39:34.679Z,9.38
2023-05-19T05:42:29.616Z,7.88
2023-05-19T05:45:22.561Z,8.52
2023-05-19T05:48:29.850Z,7.93
2023-05-19T05:51:24.189Z,7.80
2023-05-19T05:57:15.118Z,8.50
2023-05-19T06:00:08.944Z,7.80
2023-05-19T06:03:05.993Z,8.13
2023-05-19T06:05:57.256Z,8.00
2023-05-19T06:08:47.076Z,8.85
2023-05-19T06:11:36.884Z,9.90
2023-05-19T06:14:36.456Z,9.48
2023-05-19T06:17:58.028Z,8.50
2023-05-19T06:20:47.682Z,8.38
2023-05-19T06:23:38.520Z,8.73
2023-05-19T06:26:30.075Z,8.80
2023-05-19T06:29:19.806Z,8.68
2023-05-19T06:32:11.102Z,9.77
2023-05-19T06:35:01.205Z,9.98
2023-05-19T06:37:53.221Z,8.38
2023-05-19T06:40:47.762Z,8.30
2023-05-19T06:43:37.678Z,8.98
2023-05-19T06:46:29.051Z,8.10
2023-05-19T06:49:20.454Z,8.30
2023-05-19T06:52:14.155Z,8.05
2023-05-19T06:55:08.052Z,8.02
2023-05-19T06:58:01.320Z,8.35
2023-05-19T07:00:50.899Z,8.88
2023-05-19T07:03:40.687Z,8.88
2023-05-19T07:06:31.426Z,8.77
2023-05-19T07:09:21.072Z,8.93
2023-05-19T07:12:11.148Z,10.07
2023-05-19T07:15:02.200Z,8.55
2023-05-19T07:17:51.968Z,8.63
2023-05-19T07:20:41.362Z,7.80
2023-05-19T07:23:30.758Z,8.45
2023-05-19T07:26:20.420Z,8.18
2023-05-19T07:29:09.795Z,9.82
2023-05-19T07:32:00.614Z,8.57
2023-05-19T07:34:50.068Z,9.38
2023-05-19T07:37:39.427Z,10.15
2023-05-19T07:40:28.861Z,9.00
2023-05-19T07:43:18.258Z,8.95
2023-05-19T07:46:07.909Z,8.68
2023-05-19T07:48:58.937Z,8.32
2023-05-19T07:51:48.583Z,7.88
2023-05-19T07:54:39.785Z,8.05
2023-05-19T07:57:29.364Z,8.43
2023-05-19T08:00:19.929Z,8.93
2023-05-19T08:03:10.409Z,8.27
2023-05-19T08:06:01.417Z,8.93
2023-05-19T08:08:50.786Z,8.02
2023-05-19T08:11:40.177Z,8.32
2023-05-19T08:14:29.491Z,7.57
2023-05-19T08:17:18.760Z,8.13
2023-05-19T08:20:10.282Z,7.93
2023-05-19T08:23:01.183Z,8.57
2023-05-19T08:25:50.381Z,8.52
2023-05-19T08:28:39.848Z,9.73
2023-05-19T08:31:29.674Z,8.20
2023-05-19T08:34:19.023Z,7.82
2023-05-19T08:37:09.241Z,7.60
2023-05-19T08:39:59.960Z,7.85
2023-05-19T08:42:49.761Z,7.97
2023-05-19T08:45:40.628Z,8.38
2023-05-19T08:48:32.216Z,8.07
2023-05-19T08:51:33.417Z,7.78
2023-05-19T08:54:26.916Z,7.40
2023-05-19T08:57:18.417Z,7.00
2023-05-19T09:00:11.954Z,7.13
2023-05-19T09:05:55.864Z,7.35
2023-05-19T09:08:47.270Z,6.85
2023-05-19T09:11:37.980Z,7.53
2023-05-19T09:14:29.362Z,6.45
2023-05-19T09:17:19.150Z,7.60
2023-05-19T09:20:11.486Z,7.40
2023-05-19T09:23:01.841Z,8.52
2023-05-19T09:25:52.186Z,7.60
2023-05-19T09:28:42.473Z,7.07
2023-05-19T09:31:35.865Z,8.57
2023-05-19T09:34:26.920Z,7.82
2023-05-19T09:37:16.296Z,7.68
2023-05-19T09:40:10.553Z,7.43
2023-05-19T09:43:00.654Z,8.10
2023-05-19T09:45:50.100Z,7.93
2023-05-19T09:48:40.980Z,7.05
2023-05-19T09:51:32.111Z,7.50
2023-05-19T09:54:23.863Z,7.47
2023-05-19T09:57:13.757Z,7.60
2023-05-19T10:00:12.020Z,7.85
2023-05-19T10:03:02.984Z,8.35
2023-05-19T10:05:55.344Z,7.88
2023-05-19T10:08:45.755Z,7.63
2023-05-19T10:11:35.727Z,8.52
2023-05-19T10:14:26.803Z,8.35
2023-05-19T10:17:16.817Z,8.23
2023-05-19T10:20:11.018Z,8.35
2023-05-19T10:23:03.033Z,8.02
2023-05-19T10:25:54.558Z,8.52
2023-05-19T10:28:46.710Z,8.35
2023-05-19T10:31:37.295Z,8.20
2023-05-19T10:35:13.249Z,7.97
2023-05-19T10:38:23.401Z,8.85
2023-05-19T10:41:24.120Z,8.32
2023-05-19T10:44:36.575Z,7.72
2023-05-19T10:47:26.925Z,7.50
2023-05-19T10:50:17.518Z,8.23
2023-05-19T10:53:18.587Z,8.20
2023-05-19T10:56:10.297Z,7.57
2023-05-19T10:58:59.925Z,7.95
2023-05-19T11:01:49.301Z,7.35
2023-05-19T11:04:51.925Z,8.05
2023-05-19T11:07:44.651Z,7.75
2023-05-19T11:10:35.921Z,7.18
2023-05-19T11:13:29.957Z,7.80
2023-05-19T11:16:22.363Z,7.80
2023-05-19T11:19:20.248Z,7.32
2023-05-19T11:22:12.405Z,7.78
2023-05-19T11:25:01.690Z,7.80
2023-05-19T11:27:53.594Z,9.18
2023-05-19T11:30:44.703Z,8.38
2023-05-19T11:33:34.557Z,7.35
2023-05-19T11:36:24.476Z,7.38
2023-05-19T11:39:13.792Z,8.48
2023-05-19T11:42:03.275Z,7.65
2023-05-19T11:44:57.412Z,7.90
2023-05-19T11:48:01.112Z,7.25
2023-05-19T11:50:52.567Z,7.25
2023-05-19T11:53:42.300Z,7.45
2023-05-19T11:56:36.914Z,8.18
2023-05-19T11:59:34.211Z,7.75
2023-05-19T12:02:28.021Z,7.63
2023-05-19T12:05:23.052Z,8.25
2023-05-19T12:08:12.985Z,7.78
2023-05-19T12:11:02.429Z,7.38
2023-05-19T12:13:54.765Z,7.93
2023-05-19T12:16:44.275Z,8.02
2023-05-19T12:19:35.197Z,7.47
2023-05-19T12:22:24.654Z,8.05
2023-05-19T12:25:14.711Z,7.40
2023-05-19T12:28:04.667Z,7.38
2023-05-19T12:30:54.748Z,8.02
2023-05-19T12:33:44.356Z,7.47
2023-05-19T12:36:35.941Z,7.22
2023-05-19T12:39:26.389Z,7.38
2023-05-19T12:42:17.650Z,7.00
2023-05-19T12:45:08.562Z,7.50
2023-05-19T12:47:58.015Z,7.30
2023-05-19T12:50:49.755Z,7.60
2023-05-19T12:53:40.515Z,8.30
2023-05-19T12:56:30.147Z,7.07
2023-05-19T12:59:37.255Z,7.60
2023-05-19T13:02:27.658Z,7.35
2023-05-19T13:05:17.146Z,9.15
2023-05-19T13:08:09.079Z,8.00
2023-05-19T13:11:00.223Z,8.23
2023-05-19T13:13:49.685Z,7.82
2023-05-19T13:16:39.206Z,8.20
2023-05-19T13:19:28.713Z,7.63
2023-05-19T13:22:18.188Z,7.70
2023-05-19T13:25:09.065Z,8.77
2023-05-19T13:28:01.448Z,8.27
2023-05-19T13:30:51.520Z,8.75
2023-05-19T13:33:40.895Z,7.68
2023-05-19T13:36:30.224Z,8.02
2023-05-19T13:39:19.629Z,7.82
2023-05-19T13:42:09.252Z,7.20
2023-05-19T13:45:00.233Z,7.90
2023-05-19T13:47:49.520Z,8.38
2023-05-19T13:50:39.003Z,8.23
2023-05-19T13:53:29.717Z,8.40
2023-05-19T13:56:19.124Z,8.13
2023-05-19T13:59:08.663Z,8.55
2023-05-19T14:02:00.454Z,8.23
2023-05-19T14:04:49.855Z,7.87
2023-05-19T14:07:39.266Z,8.77
2023-05-19T14:10:28.664Z,8.07
2023-05-19T14:13:32.550Z,8.32
2023-05-19T14:16:23.897Z,8.27
2023-05-19T14:19:14.688Z,8.20
2023-05-19T14:22:04.153Z,8.02
2023-05-19T14:24:53.830Z,6.95
2023-05-19T14:27:43.168Z,7.60
2023-05-19T14:30:32.872Z,7.18
2023-05-19T14:33:22.732Z,7.90
2023-05-19T14:36:13.462Z,7.07
2023-05-19T14:39:03.236Z,6.95
2023-05-19T14:41:53.143Z,7.50
2023-05-19T14:44:42.429Z,7.88
2023-05-19T14:47:31.855Z,7.13
2023-05-19T14:50:21.495Z,6.70
2023-05-19T14:53:12.412Z,7.53
2023-05-19T14:56:01.689Z,7.28
2023-05-19T14:58:51.056Z,8.35
2023-05-19T15:01:40.506Z,7.55
2023-05-19T15:04:30.215Z,7.22
2023-05-19T15:07:20.212Z,7.30
2023-05-19T15:10:12.475Z,7.68
2023-05-19T15:13:01.849Z,6.53
2023-05-19T15:16:08.280Z,7.43
2023-05-19T15:19:05.394Z,7.03
2023-05-19T15:21:54.800Z,6.07
2023-05-19T15:24:44.520Z,6.95
2023-05-19T15:27:36.437Z,7.10
2023-05-19T15:30:26.162Z,6.70
2023-05-19T15:33:15.948Z,6.70
2023-05-19T15:36:05.978Z,6.88
2023-05-19T15:38:55.387Z,6.40
2023-05-19T15:41:44.830Z,6.80
2023-05-19T15:44:36.613Z,7.03
2023-05-19T15:47:26.110Z,7.18
2023-05-19T15:50:16.910Z,6.90
2023-05-19T15:53:07.847Z,7.03
2023-05-19T15:55:58.371Z,6.82
2023-05-19T15:58:47.650Z,7.43
2023-05-19T16:01:38.906Z,6.90
2023-05-19T16:04:28.651Z,7.45
2023-05-19T16:07:18.601Z,7.38
2023-05-19T16:10:09.428Z,14.43
2023-05-19T16:12:58.797Z,11.95
2023-05-19T16:15:48.226Z,9.88
2023-05-19T16:18:39.128Z,7.50
2023-05-19T16:21:28.588Z,7.22
2023-05-19T16:24:17.931Z,7.60
2023-05-19T16:27:07.442Z,7.75
2023-05-19T16:29:57.206Z,6.93
2023-05-19T16:32:46.730Z,7.78
2023-05-19T16:35:37.572Z,6.80
2023-05-19T16:38:26.835Z,7.18
2023-05-19T16:41:16.109Z,6.85
2023-05-19T16:44:05.474Z,7.90
2023-05-19T16:46:54.804Z,7.05
2023-05-19T16:49:44.228Z,7.38
2023-05-19T16:52:34.928Z,7.38
2023-05-19T16:55:25.475Z,7.53
2023-05-19T16:58:14.814Z,6.57
2023-05-19T17:01:04.692Z,7.05
2023-05-19T17:03:55.824Z,6.43
2023-05-19T17:06:46.250Z,6.15
2023-05-19T17:09:37.178Z,7.10
2023-05-19T17:12:26.588Z,5.88
2023-05-19T17:15:19.326Z,6.53
2023-05-19T17:18:08.633Z,6.70
2023-05-19T17:20:59.330Z,7.10
2023-05-19T17:23:49.534Z,6.75
2023-05-19T17:26:40.202Z,6.18
2023-05-19T17:29:29.521Z,5.90
2023-05-19T17:32:18.847Z,6.70
2023-05-19T17:35:09.653Z,6.85
2023-05-19T17:37:59.389Z,6.47
2023-05-19T17:40:48.828Z,7.00
2023-05-19T17:43:42.333Z,6.80
2023-05-19T17:46:34.752Z,6.63
2023-05-19T17:49:25.853Z,6.97
2023-05-19T17:52:16.655Z,6.45
2023-05-19T17:55:07.928Z,6.03
2023-05-19T17:57:58.097Z,6.88
2023-05-19T18:00:49.444Z,6.20
2023-05-19T18:03:39.915Z,6.07
2023-05-19T18:06:31.552Z,6.30
2023-05-19T18:09:26.011Z,9.02
2023-05-19T18:12:17.647Z,6.25
2023-05-19T18:15:08.372Z,6.30
2023-05-19T18:17:59.393Z,6.25
2023-05-19T18:20:48.700Z,6.60
2023-05-19T18:23:38.351Z,6.40
2023-05-19T18:26:27.803Z,7.45
2023-05-19T18:29:17.184Z,7.07
2023-05-19T18:32:07.761Z,6.93
2023-05-19T18:34:58.677Z,6.57
2023-05-19T18:37:48.048Z,6.68
2023-05-19T18:40:37.491Z,6.95
2023-05-19T18:43:26.791Z,6.82
2023-05-19T18:46:16.300Z,6.97
2023-05-19T18:49:06.816Z,8.40
2023-05-19T18:51:57.519Z,7.32
2023-05-19T18:54:47.725Z,7.55
2023-05-19T18:57:37.081Z,6.80
2023-05-19T19:00:28.137Z,7.72
2023-05-19T19:03:17.725Z,7.55
2023-05-19T19:06:07.145Z,7.40
2023-05-19T19:08:58.173Z,6.47
2023-05-19T19:11:47.510Z,6.82
2023-05-19T19:14:36.956Z,6.85
2023-05-19T19:17:26.702Z,7.45
2023-05-19T19:20:16.240Z,8.07
2023-05-19T19:23:06.837Z,7.45
2023-05-19T19:25:57.795Z,7.53
2023-05-19T19:28:47.525Z,7.55
2023-05-19T19:31:36.826Z,7.47
2023-05-19T19:34:26.283Z,7.50
2023-05-19T19:37:16.632Z,7.50
2023-05-19T19:40:07.531Z,7.75
2023-05-19T19:42:58.458Z,7.95
2023-05-19T19:45:47.891Z,9.18
2023-05-19T19:48:37.317Z,10.95
2023-05-19T19:51:26.795Z,10.20
2023-05-19T19:54:16.230Z,8.50
2023-05-19T19:57:06.354Z,8.20
2023-05-19T20:00:00.006Z,8.95
2023-05-19T20:03:03.737Z,8.30
2023-05-19T20:05:55.426Z,8.35
2023-05-19T20:08:45.040Z,9.18
2023-05-19T20:11:34.588Z,9.75
2023-05-19T20:14:24.111Z,9.50
2023-05-19T20:17:15.084Z,9.18
2023-05-19T20:20:10.225Z,12.02
2023-05-19T20:22:59.507Z,10.60
2023-05-19T20:26:02.958Z,9.52
2023-05-19T20:28:59.185Z,8.60
2023-05-19T20:31:48.475Z,9.18
2023-05-19T20:34:39.427Z,9.38
2023-05-19T20:37:28.790Z,8.95
2023-05-19T20:40:18.833Z,8.68
2023-05-19T20:43:08.245Z,8.23
2023-05-19T20:45:57.768Z,8.73
2023-05-19T20:48:47.266Z,7.43
2023-05-19T20:51:37.964Z,7.20
2023-05-19T20:54:27.364Z,8.48
2023-05-19T20:57:16.736Z,9.55
2023-05-19T21:00:07.518Z,9.52
2023-05-19T21:02:57.058Z,11.57
2023-05-19T21:05:46.694Z,11.65
2023-05-19T21:08:37.551Z,14.85
2023-05-19T21:11:27.008Z,12.65
2023-05-19T21:14:16.572Z,10.73
2023-05-19T21:17:07.258Z,11.23
2023-05-19T21:19:59.601Z,9.68
2023-05-19T21:22:48.986Z,9.50
2023-05-19T21:25:42.925Z,8.57
2023-05-19T21:28:33.438Z,9.57
2023-05-19T21:31:22.894Z,8.82
2023-05-19T21:34:12.434Z,9.35
2023-05-19T21:37:01.938Z,8.23
2023-05-19T21:39:51.721Z,8.13
2023-05-19T21:42:42.476Z,8.30
2023-05-19T21:45:31.845Z,7.85
2023-05-19T21:48:21.674Z,9.68
2023-05-19T21:51:11.253Z,8.48
2023-05-19T21:54:00.622Z,8.95
2023-05-19T21:56:49.950Z,9.38
2023-05-19T21:59:40.724Z,8.93
2023-05-19T22:02:30.088Z,8.48
2023-05-19T22:05:19.646Z,8.57
2023-05-19T22:08:09.463Z,8.82
2023-05-19T22:10:58.793Z,8.30
2023-05-19T22:13:48.056Z,8.20
2023-05-19T22:16:38.832Z,8.65
2023-05-19T22:19:28.277Z,8.18
2023-05-19T22:22:17.689Z,9.35
2023-05-19T22:25:08.500Z,8.20
2023-05-19T22:27:59.043Z,8.95
2023-05-19T22:30:48.689Z,8.57
2023-05-19T22:33:39.457Z,9.10
2023-05-19T22:36:28.741Z,10.23
2023-05-19T22:39:18.096Z,9.93
2023-05-19T22:42:07.724Z,10.20
2023-05-19T22:44:57.169Z,10.52
2023-05-19T22:47:50.639Z,10.77
2023-05-19T22:50:45.277Z,9.15
2023-05-19T22:53:39.825Z,9.02
2023-05-19T22:56:34.085Z,8.65
2023-05-19T22:59:44.619Z,9.65
2023-05-19T23:02:38.469Z,9.98
2023-05-19T23:05:32.476Z,10.23
2023-05-19T23:08:25.790Z,9.50
2023-05-19T23:11:15.346Z,9.80
2023-05-19T23:14:06.922Z,9.38
2023-05-19T23:16:58.873Z,8.82
2023-05-19T23:19:48.256Z,8.43
2023-05-19T23:22:40.773Z,9.15
2023-05-19T23:25:34.609Z,8.18
2023-05-19T23:28:28.613Z,8.32
2023-05-19T23:31:18.072Z,8.48
2023-05-19T23:34:11.193Z,8.25
2023-05-19T23:37:03.248Z,8.13
2023-05-19T23:39:55.704Z,8.25
2023-05-19T23:42:46.640Z,8.45
2023-05-19T23:45:38.052Z,7.95
2023-05-19T23:48:29.785Z,7.80
2023-05-19T23:51:19.439Z,7.82
2023-05-19T23:54:09.459Z,8.00
2023-05-19T23:56:59.445Z,8.23
2023-05-19T23:59:52.799Z,7.93
